Time,TemperatureF,DewpointF,PressureIn,WindDirection,WindDirectionDegrees,WindSpeedMPH,WindSpeedGustMPH,Humidity,HourlyPrecipIn,Conditions,Clouds,dailyrainin,SolarRadiationWatts/m^2,SoftwareType,DateUTC
2013-10-08 00:01:00,49.0,42.0,-100.00,West,265,8.0,21.0,77,0.00,,,0.89,0.000000,,2013-10-08 04:01:00,
2013-10-08 00:23:00,49.0,42.0,-100.00,West,265,8.0,21.0,77,0.00,,,0.89,0.000000,,2013-10-08 04:23:00,
2013-10-08 00:34:00,49.0,42.0,-100.00,West,265,8.0,21.0,77,0.00,,,0.89,0.000000,,2013-10-08 04:34:00,
2013-10-08 00:43:00,49.0,42.0,-100.00,West,265,8.0,21.0,77,0.00,,,0.89,0.000000,,2013-10-08 04:43:00,
2013-10-08 00:53:00,49.0,42.0,-100.00,West,265,8.0,21.0,77,0.00,,,0.89,0.000000,,2013-10-08 04:53:00,
2013-10-08 01:01:00,47.0,40.0,-100.00,West,278,13.0,27.0,77,0.00,,,0.89,0.000000,,2013-10-08 05:01:00,
2013-10-08 01:22:00,47.0,40.0,-100.00,West,278,13.0,27.0,77,0.00,,,0.89,0.000000,,2013-10-08 05:22:00,
2013-10-08 01:34:00,47.0,40.0,-100.00,West,278,13.0,27.0,77,0.00,,,0.89,0.000000,,2013-10-08 05:34:00,
2013-10-08 01:42:00,47.0,40.0,-100.00,West,278,13.0,27.0,77,0.00,,,0.89,0.000000,,2013-10-08 05:42:00,
2013-10-08 01:53:00,47.0,40.0,-100.00,West,278,13.0,27.0,77,0.00,,,0.89,0.000000,,2013-10-08 05:53:00,
2013-10-08 02:01:00,46.0,39.0,-100.00,West,273,9.0,27.0,77,0.00,,,0.89,0.000000,,2013-10-08 06:01:00,
2013-10-08 02:22:00,46.0,39.0,-100.00,West,273,9.0,27.0,77,0.00,,,0.89,0.000000,,2013-10-08 06:22:00,
2013-10-08 02:32:00,46.0,39.0,-100.00,West,273,9.0,27.0,77,0.00,,,0.89,0.000000,,2013-10-08 06:32:00,
2013-10-08 02:42:00,46.0,39.0,-100.00,West,273,9.0,27.0,77,0.00,,,0.89,0.000000,,2013-10-08 06:42:00,
2013-10-08 02:52:00,46.0,39.0,-100.00,West,273,9.0,27.0,77,0.00,,,0.89,0.000000,,2013-10-08 06:52:00,
2013-10-08 03:01:00,45.0,39.0,-100.00,West,279,7.0,22.0,79,0.00,,,0.89,0.000000,,2013-10-08 07:01:00,
2013-10-08 03:42:00,45.0,39.0,-100.00,West,279,7.0,22.0,79,0.00,,,0.89,0.000000,,2013-10-08 07:42:00,
2013-10-08 03:52:00,45.0,39.0,-100.00,West,279,7.0,22.0,79,0.00,,,0.89,0.000000,,2013-10-08 07:52:00,
2013-10-08 04:01:00,43.0,36.0,-100.00,West,271,8.0,15.0,76,0.00,,,0.89,0.000000,,2013-10-08 08:01:00,
2013-10-08 04:22:00,43.0,36.0,-100.00,West,271,8.0,15.0,76,0.00,,,0.89,0.000000,,2013-10-08 08:22:00,
2013-10-08 04:32:00,43.0,36.0,-100.00,West,271,8.0,15.0,76,0.00,,,0.89,0.000000,,2013-10-08 08:32:00,
2013-10-08 04:42:00,43.0,36.0,-100.00,West,271,8.0,15.0,76,0.00,,,0.89,0.000000,,2013-10-08 08:42:00,
2013-10-08 04:52:00,43.0,36.0,-100.00,West,271,8.0,15.0,76,0.00,,,0.89,0.000000,,2013-10-08 08:52:00,
2013-10-08 05:01:00,42.0,36.0,-100.00,West,275,6.0,16.0,79,0.00,,,0.89,0.000000,,2013-10-08 09:01:00,
2013-10-08 05:43:00,42.0,36.0,-100.00,West,275,6.0,16.0,79,0.00,,,0.89,0.000000,,2013-10-08 09:43:00,
2013-10-08 05:53:00,42.0,36.0,-100.00,West,275,6.0,16.0,79,0.00,,,0.89,0.000000,,2013-10-08 09:53:00,
2013-10-08 06:01:00,41.0,36.0,-100.00,West,278,8.0,18.0,82,0.00,,,0.89,0.000000,,2013-10-08 10:01:00,
2013-10-08 06:42:00,41.0,36.0,-100.00,West,278,8.0,18.0,82,0.00,,,0.89,0.000000,,2013-10-08 10:42:00,
2013-10-08 06:53:00,41.0,36.0,-100.00,West,278,8.0,18.0,82,0.00,,,0.89,0.000000,,2013-10-08 10:53:00,
2013-10-08 07:01:00,40.0,35.0,-100.00,West,273,6.0,15.0,82,0.00,,,0.89,0.000000,,2013-10-08 11:01:00,
2013-10-08 07:22:00,40.0,35.0,-100.00,West,273,6.0,15.0,82,0.00,,,0.89,0.000000,,2013-10-08 11:22:00,
2013-10-08 07:33:00,40.0,35.0,-100.00,West,273,6.0,15.0,82,0.00,,,0.89,0.000000,,2013-10-08 11:33:00,
2013-10-08 07:42:00,40.0,35.0,-100.00,West,273,6.0,15.0,82,0.00,,,0.89,0.000000,,2013-10-08 11:42:00,
2013-10-08 07:52:00,40.0,35.0,-100.00,West,273,6.0,15.0,82,0.00,,,0.89,0.000000,,2013-10-08 11:52:00,
2013-10-08 08:01:00,39.0,34.0,-100.00,West,270,7.0,14.0,83,0.00,,,0.89,21.000000,,2013-10-08 12:01:00,
2013-10-08 08:42:00,39.0,34.0,-100.00,West,270,7.0,14.0,83,0.00,,,0.89,21.000000,,2013-10-08 12:42:00,
2013-10-08 08:52:00,39.0,34.0,-100.00,West,270,7.0,14.0,83,0.00,,,0.89,21.000000,,2013-10-08 12:52:00,
2013-10-08 09:01:00,42.0,35.0,-100.00,West,269,6.0,12.0,77,0.00,,,0.89,140.000000,,2013-10-08 13:01:00,
2013-10-08 09:42:00,42.0,35.0,-100.00,West,269,6.0,12.0,77,0.00,,,0.89,140.000000,,2013-10-08 13:42:00,
2013-10-08 09:52:00,42.0,35.0,-100.00,West,269,6.0,12.0,77,0.00,,,0.89,140.000000,,2013-10-08 13:52:00,
2013-10-08 10:01:00,45.0,34.0,-100.00,West,274,6.0,15.0,66,0.00,,,0.89,467.000000,,2013-10-08 14:01:00,
2013-10-08 10:42:00,45.0,34.0,-100.00,West,274,6.0,15.0,66,0.00,,,0.89,467.000000,,2013-10-08 14:42:00,
2013-10-08 10:52:00,45.0,34.0,-100.00,West,274,6.0,15.0,66,0.00,,,0.89,467.000000,,2013-10-08 14:52:00,
2013-10-08 11:01:00,47.0,33.0,-100.00,WNW,282,8.0,14.0,59,0.00,,,0.89,620.000000,,2013-10-08 15:01:00,
2013-10-08 11:44:00,47.0,33.0,-100.00,WNW,282,8.0,14.0,59,0.00,,,0.89,620.000000,,2013-10-08 15:44:00,
2013-10-08 11:53:00,47.0,33.0,-100.00,WNW,282,8.0,14.0,59,0.00,,,0.89,620.000000,,2013-10-08 15:53:00,
2013-10-08 12:01:00,50.0,34.0,-100.00,WNW,282,7.0,19.0,53,0.00,,,0.89,757.000000,,2013-10-08 16:01:00,
2013-10-08 12:42:00,50.0,34.0,-100.00,WNW,282,7.0,19.0,53,0.00,,,0.89,757.000000,,2013-10-08 16:42:00,
2013-10-08 12:53:00,50.0,34.0,-100.00,WNW,282,7.0,19.0,53,0.00,,,0.89,757.000000,,2013-10-08 16:53:00,
2013-10-08 13:01:00,52.0,32.0,-100.00,West,271,5.0,16.0,47,0.00,,,0.89,805.000000,,2013-10-08 17:01:00,
2013-10-08 13:43:00,52.0,32.0,-100.00,West,271,5.0,16.0,47,0.00,,,0.89,805.000000,,2013-10-08 17:43:00,
2013-10-08 13:52:00,52.0,32.0,-100.00,West,271,5.0,16.0,47,0.00,,,0.89,805.000000,,2013-10-08 17:52:00,
2013-10-08 14:01:00,53.0,31.0,-100.00,West,280,6.0,17.0,43,0.00,,,0.87,751.000000,,2013-10-08 18:01:00,
2013-10-08 14:22:00,53.0,31.0,-100.00,West,280,6.0,17.0,43,0.00,,,0.87,751.000000,,2013-10-08 18:22:00,
2013-10-08 14:32:00,53.0,31.0,-100.00,West,280,6.0,17.0,43,0.00,,,0.87,751.000000,,2013-10-08 18:32:00,
2013-10-08 14:42:00,53.0,31.0,-100.00,West,280,6.0,17.0,43,0.00,,,0.87,751.000000,,2013-10-08 18:42:00,
2013-10-08 14:53:00,53.0,31.0,-100.00,West,280,6.0,17.0,43,0.00,,,0.87,751.000000,,2013-10-08 18:53:00,
2013-10-08 15:01:00,55.0,32.0,-100.00,West,279,5.0,13.0,41,0.00,,,0.59,703.000000,,2013-10-08 19:01:00,
2013-10-08 15:22:00,55.0,32.0,-100.00,West,279,5.0,13.0,41,0.00,,,0.59,703.000000,,2013-10-08 19:22:00,
2013-10-08 15:32:00,55.0,32.0,-100.00,West,279,5.0,13.0,41,0.00,,,0.59,703.000000,,2013-10-08 19:32:00,
2013-10-08 15:43:00,55.0,32.0,-100.00,West,279,5.0,13.0,41,0.00,,,0.59,703.000000,,2013-10-08 19:43:00,
2013-10-08 15:53:00,55.0,32.0,-100.00,West,279,5.0,13.0,41,0.00,,,0.59,703.000000,,2013-10-08 19:53:00,
2013-10-08 16:01:00,53.0,29.0,-100.00,West,272,4.0,11.0,40,0.00,,,0.08,228.000000,,2013-10-08 20:01:00,
2013-10-08 16:22:00,53.0,29.0,-100.00,West,272,4.0,11.0,40,0.00,,,0.08,228.000000,,2013-10-08 20:22:00,
2013-10-08 16:32:00,53.0,29.0,-100.00,West,272,4.0,11.0,40,0.00,,,0.08,228.000000,,2013-10-08 20:32:00,
2013-10-08 16:42:00,53.0,29.0,-100.00,West,272,4.0,11.0,40,0.00,,,0.08,228.000000,,2013-10-08 20:42:00,
2013-10-08 16:52:00,53.0,29.0,-100.00,West,272,4.0,11.0,40,0.00,,,0.08,228.000000,,2013-10-08 20:52:00,
2013-10-08 17:01:00,55.0,31.0,-100.00,WNW,298,4.0,10.0,39,0.00,,,0.02,143.000000,,2013-10-08 21:01:00,
2013-10-08 17:22:00,55.0,31.0,-100.00,WNW,298,4.0,10.0,39,0.00,,,0.02,143.000000,,2013-10-08 21:22:00,
2013-10-08 17:34:00,55.0,31.0,-100.00,WNW,298,4.0,10.0,39,0.00,,,0.02,143.000000,,2013-10-08 21:34:00,
2013-10-08 17:44:00,55.0,31.0,-100.00,WNW,298,4.0,10.0,39,0.00,,,0.02,143.000000,,2013-10-08 21:44:00,
2013-10-08 17:54:00,55.0,31.0,-100.00,WNW,298,4.0,10.0,39,0.00,,,0.02,143.000000,,2013-10-08 21:54:00,
2013-10-08 18:01:00,50.0,31.0,-100.00,WNW,297,3.0,10.0,48,0.00,,,0.00,141.000000,,2013-10-08 22:01:00,
2013-10-08 18:49:00,50.0,31.0,-100.00,WNW,297,3.0,10.0,48,0.00,,,0.00,141.000000,,2013-10-08 22:49:00,
2013-10-08 18:59:00,50.0,31.0,-100.00,WNW,297,3.0,10.0,48,0.00,,,0.00,141.000000,,2013-10-08 22:59:00,
2013-10-08 19:01:00,40.0,35.0,-100.00,East,92,1.0,4.0,81,0.00,,,0.00,5.000000,,2013-10-08 23:01:00,
2013-10-08 19:23:00,40.0,35.0,-100.00,East,92,1.0,4.0,81,0.00,,,0.00,5.000000,,2013-10-08 23:23:00,
2013-10-08 19:34:00,40.0,35.0,-100.00,East,92,1.0,4.0,81,0.00,,,0.00,5.000000,,2013-10-08 23:34:00,
2013-10-08 19:42:00,40.0,35.0,-100.00,East,92,1.0,4.0,81,0.00,,,0.00,5.000000,,2013-10-08 23:42:00,
2013-10-08 19:53:00,40.0,35.0,-100.00,East,92,1.0,4.0,81,0.00,,,0.00,5.000000,,2013-10-08 23:53:00,
2013-10-08 20:01:00,37.0,34.0,-100.00,SE,126,2.0,3.0,87,0.00,,,0.00,0.000000,,2013-10-09 00:01:00,
2013-10-08 20:22:00,37.0,34.0,-100.00,SE,126,2.0,3.0,87,0.00,,,0.00,0.000000,,2013-10-09 00:22:00,
2013-10-08 20:32:00,37.0,34.0,-100.00,SE,126,2.0,3.0,87,0.00,,,0.00,0.000000,,2013-10-09 00:32:00,
2013-10-08 20:43:00,37.0,34.0,-100.00,SE,126,2.0,3.0,87,0.00,,,0.00,0.000000,,2013-10-09 00:43:00,
2013-10-08 20:52:00,37.0,34.0,-100.00,SE,126,2.0,3.0,87,0.00,,,0.00,0.000000,,2013-10-09 00:52:00,
2013-10-08 21:01:00,35.0,32.0,-100.00,ESE,112,2.0,4.0,89,0.00,,,0.00,0.000000,,2013-10-09 01:01:00,
2013-10-08 21:43:00,35.0,32.0,-100.00,ESE,112,2.0,4.0,89,0.00,,,0.00,0.000000,,2013-10-09 01:43:00,
2013-10-08 21:52:00,35.0,32.0,-100.00,ESE,112,2.0,4.0,89,0.00,,,0.00,0.000000,,2013-10-09 01:52:00,
2013-10-08 22:01:00,32.0,30.0,-100.00,ESE,117,2.0,4.0,91,0.00,,,0.00,0.000000,,2013-10-09 02:01:00,
2013-10-08 22:23:00,32.0,30.0,-100.00,ESE,117,2.0,4.0,91,0.00,,,0.00,0.000000,,2013-10-09 02:23:00,
2013-10-08 22:32:00,32.0,30.0,-100.00,ESE,117,2.0,4.0,91,0.00,,,0.00,0.000000,,2013-10-09 02:32:00,
2013-10-08 22:42:00,32.0,30.0,-100.00,ESE,117,2.0,4.0,91,0.00,,,0.00,0.000000,,2013-10-09 02:42:00,
2013-10-08 22:52:00,32.0,30.0,-100.00,ESE,117,2.0,4.0,91,0.00,,,0.00,0.000000,,2013-10-09 02:52:00,
2013-10-08 23:01:00,31.0,29.0,-100.00,ESE,109,2.0,4.0,93,0.00,,,0.00,0.000000,,2013-10-09 03:01:00,
2013-10-08 23:45:00,31.0,29.0,-100.00,ESE,109,2.0,4.0,93,0.00,,,0.00,0.000000,,2013-10-09 03:45:00,
2013-10-08 23:54:00,31.0,29.0,-100.00,ESE,109,2.0,4.0,93,0.00,,,0.00,0.000000,,2013-10-09 03:54:00,